Time;durP1;ratioP1;P1;durP2;ratioP2;P2;SDS_P1;SDS_P2;PMS_P1;PMS_P2;Temp;Humidity;BMP_temperature;BMP_pressure;BME280_temperature;BME280_humidity;BME280_pressure;Samples;Min_cycle;Max_cycle;Signal;HPM_P1;HPM_P2
2023/08/28 00:00:04;;;;;;;2.80;1.65;;;;;;;;;;5077438;28;20231;-62
2023/08/28 00:02:32;;;;;;;2.38;1.50;;;;;;;;;;5077159;28;20248;-62
2023/08/28 00:05:00;;;;;;;1.92;1.67;;;;;;;;;;5076957;28;20334;-62
2023/08/28 00:07:28;;;;;;;1.88;1.38;;;;;;;;;;5077156;28;20441;-62
2023/08/28 00:09:55;;;;;;;1.83;1.40;;;;;;;;;;5077485;28;20204;-62
2023/08/28 00:12:24;;;;;;;1.50;1.40;;;;;;;;;;5077888;28;20266;-62
2023/08/28 00:14:52;;;;;;;1.75;1.65;;;;;;;;;;5081198;28;20204;-62
2023/08/28 00:17:20;;;;;;;2.55;1.77;;;;;;;;;;5081277;28;20204;-62
2023/08/28 00:19:47;;;;;;;3.75;1.58;;;;;;;;;;5081465;28;20204;-62
2023/08/28 00:22:14;;;;;;;2.80;1.58;;;;;;;;;;5081312;28;20211;-62
2023/08/28 00:24:42;;;;;;;1.67;1.58;;;;;;;;;;5081308;28;20239;-62
2023/08/28 00:27:09;;;;;;;1.70;1.60;;;;;;;;;;5081406;28;20615;-62
2023/08/28 00:29:39;;;;;;;1.83;1.60;;;;;;;;;;5081004;28;20204;-62
2023/08/28 00:32:07;;;;;;;1.70;1.60;;;;;;;;;;5080990;28;20204;-62
2023/08/28 00:34:34;;;;;;;1.83;1.73;;;;;;;;;;5080563;28;20204;-62
2023/08/28 00:37:02;;;;;;;1.90;1.80;;;;;;;;;;5081219;28;20215;-62
2023/08/28 00:39:30;;;;;;;1.80;1.67;;;;;;;;;;5080417;28;20274;-62
2023/08/28 00:41:57;;;;;;;2.35;1.60;;;;;;;;;;5080597;28;20314;-62
2023/08/28 00:44:25;;;;;;;2.33;1.55;;;;;;;;;;5080874;28;20204;-62
2023/08/28 00:46:54;;;;;;;1.60;1.50;;;;;;;;;;5080538;28;20204;-62
2023/08/28 00:49:22;;;;;;;2.28;1.63;;;;;;;;;;5080771;28;20204;-62
2023/08/28 00:51:49;;;;;;;2.63;1.80;;;;;;;;;;5081137;28;20581;-62
2023/08/28 00:54:17;;;;;;;2.10;1.73;;;;;;;;;;5080507;28;20231;-62
2023/08/28 00:56:45;;;;;;;2.08;1.55;;;;;;;;;;5080940;28;20208;-62
2023/08/28 00:59:13;;;;;;;2.17;1.70;;;;;;;;;;5080390;28;20640;-62
2023/08/28 01:01:41;;;;;;;1.70;1.60;;;;;;;;;;5080613;28;20205;-62
2023/08/28 01:04:10;;;;;;;2.10;1.80;;;;;;;;;;5080269;28;20211;-62
2023/08/28 01:06:42;;;;;;;2.33;1.73;;;;;;;;;;5080330;28;20277;-62
2023/08/28 01:09:14;;;;;;;1.50;1.40;;;;;;;;;;5080263;28;20223;-62
2023/08/28 01:11:46;;;;;;;3.78;1.67;;;;;;;;;;5080038;28;20214;-62
2023/08/28 01:14:17;;;;;;;1.83;1.40;;;;;;;;;;5080083;28;20365;-62
2023/08/28 01:16:45;;;;;;;2.03;1.48;;;;;;;;;;5080355;28;20511;-62
2023/08/28 01:19:21;;;;;;;2.92;1.70;;;;;;;;;;5079922;28;20258;-62
2023/08/28 01:21:51;;;;;;;2.85;1.63;;;;;;;;;;5080054;28;20203;-62
2023/08/28 01:24:22;;;;;;;1.60;1.50;;;;;;;;;;5079071;28;20254;-62
2023/08/28 01:26:51;;;;;;;1.75;1.60;;;;;;;;;;5079916;28;20205;-62
2023/08/28 01:29:18;;;;;;;2.97;1.70;;;;;;;;;;5079650;28;20223;-61
2023/08/28 01:31:46;;;;;;;2.47;1.60;;;;;;;;;;5080287;28;20506;-62
2023/08/28 01:34:13;;;;;;;1.95;1.65;;;;;;;;;;5079761;28;20327;-62
2023/08/28 01:36:45;;;;;;;1.70;1.23;;;;;;;;;;5079677;28;20207;-62
2023/08/28 01:39:18;;;;;;;1.60;1.50;;;;;;;;;;5079688;28;20204;-62
2023/08/28 01:41:47;;;;;;;1.98;1.60;;;;;;;;;;5079754;28;20232;-62
2023/08/28 01:44:18;;;;;;;1.98;1.38;;;;;;;;;;5079541;28;20201;-62
2023/08/28 01:46:45;;;;;;;2.90;1.80;;;;;;;;;;5079730;28;20265;-62
2023/08/28 01:49:13;;;;;;;3.10;1.70;;;;;;;;;;5079798;28;20230;-62
2023/08/28 01:51:41;;;;;;;1.60;1.50;;;;;;;;;;5079760;28;20204;-62
2023/08/28 01:54:09;;;;;;;2.10;1.50;;;;;;;;;;5079404;28;21301;-62
2023/08/28 01:56:37;;;;;;;2.10;1.40;;;;;;;;;;5079282;28;20577;-62
2023/08/28 01:59:05;;;;;;;1.48;1.38;;;;;;;;;;5079744;28;20266;-62
2023/08/28 02:01:34;;;;;;;1.50;1.40;;;;;;;;;;5079231;28;20204;-62
2023/08/28 02:04:01;;;;;;;4.28;1.55;;;;;;;;;;5079466;28;20200;-62
2023/08/28 02:06:29;;;;;;;2.45;1.25;;;;;;;;;;5079289;28;20204;-62
2023/08/28 02:08:56;;;;;;;1.73;1.45;;;;;;;;;;5079373;28;20215;-62
2023/08/28 02:11:24;;;;;;;1.67;1.30;;;;;;;;;;5079157;28;20204;-62
2023/08/28 02:13:51;;;;;;;2.92;1.60;;;;;;;;;;5078919;28;20236;-62
2023/08/28 02:16:19;;;;;;;1.83;1.40;;;;;;;;;;5079128;28;20213;-62
2023/08/28 02:18:48;;;;;;;3.88;1.48;;;;;;;;;;5078979;28;20246;-62
2023/08/28 02:21:16;;;;;;;2.58;1.33;;;;;;;;;;5079075;28;20270;-62
2023/08/28 02:23:43;;;;;;;3.08;1.38;;;;;;;;;;5078626;28;20200;-62
2023/08/28 02:26:11;;;;;;;1.90;1.50;;;;;;;;;;5078690;28;20240;-62
2023/08/28 02:28:39;;;;;;;1.70;1.58;;;;;;;;;;5078723;28;20204;-62
2023/08/28 02:31:06;;;;;;;1.40;1.30;;;;;;;;;;5078798;28;20219;-62
2023/08/28 02:33:34;;;;;;;1.77;1.55;;;;;;;;;;5078610;28;20224;-62
2023/08/28 02:36:03;;;;;;;1.65;1.30;;;;;;;;;;5078298;28;20204;-61
2023/08/28 02:38:31;;;;;;;2.75;1.67;;;;;;;;;;5078603;28;20551;-62
2023/08/28 02:41:04;;;;;;;1.48;1.35;;;;;;;;;;5078800;28;20235;-62
2023/08/28 02:43:32;;;;;;;2.08;1.30;;;;;;;;;;5078669;28;20211;-62
2023/08/28 02:45:59;;;;;;;1.48;1.35;;;;;;;;;;5078694;28;20208;-62
2023/08/28 02:48:27;;;;;;;1.65;1.50;;;;;;;;;;5078243;28;20232;-62
2023/08/28 02:50:55;;;;;;;1.60;1.50;;;;;;;;;;5078315;28;20212;-61
2023/08/28 02:53:24;;;;;;;2.17;1.50;;;;;;;;;;5077786;28;20258;-62
2023/08/28 02:56:06;;;;;;;1.90;1.55;;;;;;;;;;5078162;28;20266;-62
2023/08/28 02:58:33;;;;;;;1.70;1.30;;;;;;;;;;5077685;28;20212;-62
2023/08/28 03:01:02;;;;;;;2.55;1.50;;;;;;;;;;5078120;28;20228;-62
2023/08/28 03:03:30;;;;;;;2.05;1.35;;;;;;;;;;5078284;28;20462;-62
2023/08/28 03:05:58;;;;;;;2.75;1.30;;;;;;;;;;5078279;28;20542;-62
2023/08/28 03:08:27;;;;;;;1.60;1.50;;;;;;;;;;5078024;28;20202;-62
2023/08/28 03:10:54;;;;;;;1.50;1.40;;;;;;;;;;5077920;28;20580;-62
2023/08/28 03:13:22;;;;;;;3.72;1.67;;;;;;;;;;5077540;28;20251;-62
2023/08/28 03:15:49;;;;;;;1.98;1.40;;;;;;;;;;5078098;28;20204;-62
2023/08/28 03:18:17;;;;;;;1.50;1.40;;;;;;;;;;5077720;28;20199;-61
2023/08/28 03:20:44;;;;;;;2.85;1.42;;;;;;;;;;5077563;28;20204;-62
2023/08/28 03:23:12;;;;;;;1.70;1.60;;;;;;;;;;5077460;28;20549;-62
2023/08/28 03:25:41;;;;;;;1.92;1.42;;;;;;;;;;5077441;28;20204;-62
2023/08/28 03:28:09;;;;;;;1.80;1.67;;;;;;;;;;5077154;28;20588;-62
2023/08/28 03:30:37;;;;;;;1.50;1.40;;;;;;;;;;5077572;28;20204;-63
2023/08/28 03:33:04;;;;;;;1.73;1.55;;;;;;;;;;5077055;28;20259;-62
2023/08/28 03:35:32;;;;;;;1.85;1.33;;;;;;;;;;5077706;28;20497;-62
2023/08/28 03:37:59;;;;;;;2.20;1.58;;;;;;;;;;5077219;28;20562;-62
2023/08/28 03:40:27;;;;;;;3.08;1.40;;;;;;;;;;5077336;28;20204;-62
2023/08/28 03:42:56;;;;;;;1.30;1.20;;;;;;;;;;5077248;28;20250;-62
2023/08/28 03:45:23;;;;;;;1.77;1.30;;;;;;;;;;5077341;28;20235;-62
2023/08/28 03:47:51;;;;;;;1.50;1.40;;;;;;;;;;5076918;28;20266;-62
2023/08/28 03:50:18;;;;;;;1.42;1.33;;;;;;;;;;5077073;28;20573;-62
2023/08/28 03:52:46;;;;;;;1.50;1.40;;;;;;;;;;5077071;28;20204;-62
2023/08/28 03:55:14;;;;;;;2.38;1.50;;;;;;;;;;5077240;28;20228;-62
2023/08/28 03:57:41;;;;;;;1.50;1.40;;;;;;;;;;5077068;28;20230;-62
2023/08/28 04:00:13;;;;;;;1.52;1.42;;;;;;;;;;5076318;28;20239;-62
2023/08/28 04:02:40;;;;;;;2.88;1.70;;;;;;;;;;5076183;28;20265;-62
2023/08/28 04:05:08;;;;;;;1.75;1.50;;;;;;;;;;5076640;28;20207;-62
2023/08/28 04:07:36;;;;;;;1.70;1.60;;;;;;;;;;5077393;28;20258;-62
2023/08/28 04:10:03;;;;;;;2.10;1.38;;;;;;;;;;5076578;28;20204;-62
2023/08/28 04:12:30;;;;;;;1.95;1.35;;;;;;;;;;5076210;28;20240;-62
2023/08/28 04:14:58;;;;;;;2.67;1.40;;;;;;;;;;5076618;28;20243;-62
2023/08/28 04:17:27;;;;;;;1.50;1.40;;;;;;;;;;5076652;28;20257;-62
2023/08/28 04:19:56;;;;;;;1.38;1.27;;;;;;;;;;5076795;28;20216;-62
2023/08/28 04:22:24;;;;;;;1.73;1.33;;;;;;;;;;5076648;28;20311;-62
2023/08/28 04:24:52;;;;;;;2.70;1.50;;;;;;;;;;5076524;28;20200;-62
2023/08/28 04:27:20;;;;;;;1.52;1.42;;;;;;;;;;5075606;28;20507;-62
2023/08/28 04:29:47;;;;;;;1.60;1.50;;;;;;;;;;5076051;28;20208;-62
2023/08/28 04:32:15;;;;;;;1.60;1.50;;;;;;;;;;5076328;28;20283;-61
2023/08/28 04:34:44;;;;;;;1.50;1.40;;;;;;;;;;5075662;28;20239;-62
2023/08/28 04:37:12;;;;;;;1.73;1.63;;;;;;;;;;5076316;28;20204;-62
2023/08/28 04:39:39;;;;;;;2.22;1.40;;;;;;;;;;5075826;28;20205;-62
2023/08/28 04:42:07;;;;;;;1.70;1.60;;;;;;;;;;5075947;28;20200;-62
2023/08/28 04:44:34;;;;;;;1.60;1.50;;;;;;;;;;5075623;28;20201;-62
2023/08/28 04:47:02;;;;;;;2.67;1.42;;;;;;;;;;5075350;28;20213;-62
2023/08/28 04:49:29;;;;;;;2.53;1.70;;;;;;;;;;5074045;28;20215;-62
2023/08/28 04:51:58;;;;;;;1.42;1.33;;;;;;;;;;5075663;28;20611;-62
2023/08/28 04:54:25;;;;;;;3.35;1.60;;;;;;;;;;5074428;28;20258;-62
2023/08/28 04:56:53;;;;;;;2.08;1.52;;;;;;;;;;5074984;28;20219;-62
2023/08/28 04:59:20;;;;;;;1.60;1.48;;;;;;;;;;5075241;28;20232;-62
2023/08/28 05:01:47;;;;;;;1.88;1.52;;;;;;;;;;5077984;28;20200;-62
2023/08/28 05:04:15;;;;;;;1.60;1.50;;;;;;;;;;5077455;28;20197;-62
2023/08/28 05:06:42;;;;;;;2.55;1.50;;;;;;;;;;5077597;28;20204;-62
2023/08/28 05:09:11;;;;;;;1.90;1.40;;;;;;;;;;5077037;28;20196;-62
2023/08/28 05:11:38;;;;;;;1.67;1.55;;;;;;;;;;5077848;28;20502;-62
2023/08/28 05:14:06;;;;;;;1.60;1.50;;;;;;;;;;5076837;28;20236;-62
2023/08/28 05:16:33;;;;;;;1.50;1.40;;;;;;;;;;5076001;28;20196;-62
2023/08/28 05:19:01;;;;;;;1.80;1.65;;;;;;;;;;5075770;28;20623;-62
2023/08/28 05:21:28;;;;;;;2.65;1.45;;;;;;;;;;5076556;28;20231;-62
2023/08/28 05:23:56;;;;;;;1.75;1.35;;;;;;;;;;5077533;28;20196;-62
2023/08/28 05:26:24;;;;;;;2.10;1.50;;;;;;;;;;5076318;28;20658;-62
2023/08/28 05:28:52;;;;;;;1.52;1.42;;;;;;;;;;5077304;28;20204;-62
2023/08/28 05:31:19;;;;;;;1.90;1.67;;;;;;;;;;5077092;28;20204;-62
2023/08/28 05:33:47;;;;;;;2.53;1.60;;;;;;;;;;5076160;28;20262;-62
2023/08/28 05:36:14;;;;;;;3.30;1.60;;;;;;;;;;5076924;28;20200;-62
2023/08/28 05:38:41;;;;;;;2.45;1.83;;;;;;;;;;5077201;28;20235;-62
2023/08/28 05:41:09;;;;;;;2.42;1.55;;;;;;;;;;5076924;28;20464;-62
2023/08/28 05:43:37;;;;;;;2.75;1.73;;;;;;;;;;5076478;28;20204;-62
2023/08/28 05:46:06;;;;;;;1.92;1.70;;;;;;;;;;5076662;28;20204;-62
2023/08/28 05:48:33;;;;;;;3.30;1.60;;;;;;;;;;5076468;28;20201;-62
2023/08/28 05:51:00;;;;;;;1.63;1.52;;;;;;;;;;5075449;28;20513;-62
2023/08/28 05:53:29;;;;;;;4.15;1.52;;;;;;;;;;5075764;28;20200;-62
2023/08/28 05:55:56;;;;;;;1.70;1.60;;;;;;;;;;5076156;28;20220;-62
2023/08/28 05:58:24;;;;;;;1.83;1.73;;;;;;;;;;5076610;28;20213;-62
2023/08/28 06:00:53;;;;;;;2.35;1.42;;;;;;;;;;5076013;28;20211;-62
2023/08/28 06:03:20;;;;;;;1.45;1.35;;;;;;;;;;5076978;28;20211;-62
2023/08/28 06:05:48;;;;;;;1.90;1.70;;;;;;;;;;5076880;28;20207;-62
2023/08/28 06:08:17;;;;;;;2.70;1.58;;;;;;;;;;5077227;28;20201;-62
2023/08/28 06:10:45;;;;;;;1.98;1.40;;;;;;;;;;5076706;28;20204;-62
2023/08/28 06:13:12;;;;;;;3.15;2.45;;;;;;;;;;5077213;28;20319;-62
2023/08/28 06:15:38;;;;;;;2.22;2.00;;;;;;;;;;5077364;28;20289;-62
2023/08/28 06:18:07;;;;;;;2.22;2.03;;;;;;;;;;5077135;28;20196;-62
2023/08/28 06:20:35;;;;;;;1.92;1.83;;;;;;;;;;5077541;28;20204;-62
2023/08/28 06:23:03;;;;;;;1.88;1.73;;;;;;;;;;5077591;28;20273;-62
2023/08/28 06:25:30;;;;;;;2.30;1.63;;;;;;;;;;5077398;28;20196;-62
2023/08/28 06:27:58;;;;;;;1.80;1.70;;;;;;;;;;5077635;28;20208;-63
2023/08/28 06:30:25;;;;;;;2.58;1.60;;;;;;;;;;5077105;28;20436;-62
2023/08/28 06:32:52;;;;;;;2.00;1.80;;;;;;;;;;5077159;28;20204;-62
2023/08/28 06:35:21;;;;;;;1.95;1.80;;;;;;;;;;5076675;28;20232;-62
2023/08/28 06:37:50;;;;;;;2.10;2.00;;;;;;;;;;5076907;28;20204;-62
2023/08/28 06:40:18;;;;;;;2.17;1.85;;;;;;;;;;5076864;28;20219;-62
2023/08/28 06:42:45;;;;;;;1.75;1.65;;;;;;;;;;5077126;28;20486;-62
2023/08/28 06:45:12;;;;;;;2.70;1.67;;;;;;;;;;5076921;28;20196;-62
2023/08/28 06:47:40;;;;;;;2.08;1.88;;;;;;;;;;5076544;28;20196;-62
2023/08/28 06:50:08;;;;;;;2.85;1.70;;;;;;;;;;5075412;28;20579;-62
2023/08/28 06:52:37;;;;;;;2.25;2.03;;;;;;;;;;5076076;28;20235;-61
2023/08/28 06:55:05;;;;;;;2.15;1.90;;;;;;;;;;5076350;28;20648;-61
2023/08/28 06:57:32;;;;;;;2.13;1.95;;;;;;;;;;5075724;28;20208;-62
2023/08/28 06:59:59;;;;;;;2.35;2.00;;;;;;;;;;5075820;28;20205;-62
2023/08/28 07:02:28;;;;;;;2.13;2.00;;;;;;;;;;5080919;28;20204;-62
2023/08/28 07:04:56;;;;;;;2.30;2.13;;;;;;;;;;5096232;28;20227;-62
2023/08/28 07:07:23;;;;;;;2.50;2.30;;;;;;;;;;5096820;28;20203;-62
2023/08/28 07:09:52;;;;;;;2.47;2.20;;;;;;;;;;5081923;28;20208;-62
2023/08/28 07:12:19;;;;;;;2.10;1.90;;;;;;;;;;5075901;28;20214;-62
2023/08/28 07:14:57;;;;;;;2.42;2.22;;;;;;;;;;5075717;28;20235;-62
2023/08/28 07:17:25;;;;;;;2.33;2.10;;;;;;;;;;5076268;28;20204;-62
2023/08/28 07:19:52;;;;;;;2.10;1.95;;;;;;;;;;5076331;28;20204;-62
2023/08/28 07:22:20;;;;;;;2.33;2.15;;;;;;;;;;5073794;28;20204;-62
2023/08/28 07:24:47;;;;;;;2.47;2.10;;;;;;;;;;5075371;28;20500;-62
2023/08/28 07:27:16;;;;;;;2.28;2.08;;;;;;;;;;5075615;28;20211;-62
2023/08/28 07:29:43;;;;;;;2.35;2.15;;;;;;;;;;5076001;28;20474;-62
2023/08/28 07:32:11;;;;;;;2.53;1.83;;;;;;;;;;5075310;28;20704;-61
2023/08/28 07:34:38;;;;;;;2.50;2.30;;;;;;;;;;5075839;28;20235;-62
2023/08/28 07:37:06;;;;;;;2.20;1.80;;;;;;;;;;5075378;28;20200;-62
2023/08/28 07:39:33;;;;;;;2.33;2.08;;;;;;;;;;5074242;28;20484;-61
2023/08/28 07:42:01;;;;;;;2.65;1.85;;;;;;;;;;5075405;28;20594;-61
2023/08/28 07:44:30;;;;;;;2.20;2.00;;;;;;;;;;5075519;28;20707;-62
2023/08/28 07:46:57;;;;;;;2.40;2.20;;;;;;;;;;5075349;28;20205;-62
2023/08/28 07:49:25;;;;;;;2.00;1.90;;;;;;;;;;5074686;28;20219;-62
2023/08/28 07:51:52;;;;;;;2.10;2.00;;;;;;;;;;5075020;28;20500;-62
2023/08/28 07:54:20;;;;;;;2.45;1.98;;;;;;;;;;5074748;28;20196;-62
2023/08/28 07:56:47;;;;;;;2.30;1.83;;;;;;;;;;5074951;28;20207;-62
2023/08/28 07:59:15;;;;;;;3.15;2.05;;;;;;;;;;5075054;28;20204;-62
2023/08/28 08:01:44;;;;;;;2.08;1.90;;;;;;;;;;5074401;28;20208;-62
2023/08/28 08:04:11;;;;;;;2.30;2.10;;;;;;;;;;5074711;28;20265;-62
2023/08/28 08:06:38;;;;;;;1.90;1.80;;;;;;;;;;5075698;28;20204;-62
2023/08/28 08:09:06;;;;;;;2.10;1.90;;;;;;;;;;5074758;28;20222;-62
2023/08/28 08:11:33;;;;;;;3.03;1.90;;;;;;;;;;5074667;28;20207;-62
2023/08/28 08:14:00;;;;;;;2.00;1.90;;;;;;;;;;5075358;28;20247;-61
2023/08/28 08:16:28;;;;;;;2.40;2.08;;;;;;;;;;5075310;28;20499;-61
2023/08/28 08:18:57;;;;;;;2.10;1.90;;;;;;;;;;5074121;28;20219;-62
2023/08/28 08:21:24;;;;;;;2.05;1.60;;;;;;;;;;5075124;28;20486;-62
2023/08/28 08:23:52;;;;;;;1.80;1.70;;;;;;;;;;5074799;28;20196;-62
2023/08/28 08:26:19;;;;;;;1.80;1.70;;;;;;;;;;5074037;28;20307;-61
2023/08/28 08:28:47;;;;;;;1.98;1.88;;;;;;;;;;5075231;28;20207;-61
2023/08/28 08:31:14;;;;;;;1.75;1.65;;;;;;;;;;5074997;28;20727;-61
2023/08/28 08:33:44;;;;;;;2.00;1.90;;;;;;;;;;5076683;28;20203;-61
2023/08/28 08:36:14;;;;;;;2.28;1.80;;;;;;;;;;5078398;28;20242;-61
2023/08/28 08:38:41;;;;;;;1.95;1.70;;;;;;;;;;5078493;28;20211;-62
2023/08/28 08:41:10;;;;;;;1.75;1.65;;;;;;;;;;5078343;28;20214;-62
2023/08/28 08:43:37;;;;;;;2.45;1.88;;;;;;;;;;5077576;28;20226;-62
2023/08/28 08:46:06;;;;;;;1.95;1.85;;;;;;;;;;5078073;28;20196;-62
2023/08/28 08:48:36;;;;;;;1.80;1.70;;;;;;;;;;5078261;28;20266;-62
2023/08/28 08:51:04;;;;;;;2.00;1.80;;;;;;;;;;5078218;28;20307;-62
2023/08/28 08:53:37;;;;;;;1.77;1.67;;;;;;;;;;5078269;28;20205;-62
2023/08/28 08:56:06;;;;;;;2.05;1.95;;;;;;;;;;5077615;28;20235;-62
2023/08/28 08:58:34;;;;;;;2.85;2.10;;;;;;;;;;5077448;28;20498;-62
2023/08/28 09:01:04;;;;;;;1.80;1.70;;;;;;;;;;5078019;28;20261;-62
2023/08/28 09:03:31;;;;;;;1.83;1.73;;;;;;;;;;5077864;28;20201;-62
2023/08/28 09:06:00;;;;;;;2.15;1.83;;;;;;;;;;5077484;28;20212;-62
2023/08/28 09:08:28;;;;;;;2.10;1.98;;;;;;;;;;5077849;28;20297;-62
2023/08/28 09:11:00;;;;;;;2.92;2.00;;;;;;;;;;5078473;28;20201;-62
2023/08/28 09:13:28;;;;;;;2.03;1.83;;;;;;;;;;5078104;28;20235;-62
2023/08/28 09:15:55;;;;;;;2.92;2.00;;;;;;;;;;5077435;28;20235;-62
2023/08/28 09:18:25;;;;;;;2.10;1.90;;;;;;;;;;5077675;28;20207;-62
2023/08/28 09:21:07;;;;;;;1.75;1.65;;;;;;;;;;5078155;28;20318;-62
2023/08/28 09:23:34;;;;;;;1.75;1.65;;;;;;;;;;5077072;28;20770;-62
2023/08/28 09:26:04;;;;;;;2.00;1.60;;;;;;;;;;5077241;28;20197;-61
2023/08/28 09:28:32;;;;;;;1.98;1.83;;;;;;;;;;5076932;28;20211;-61
2023/08/28 09:30:59;;;;;;;1.75;1.63;;;;;;;;;;5077375;28;20215;-62
2023/08/28 09:33:27;;;;;;;1.83;1.42;;;;;;;;;;5076790;28;20306;-62
2023/08/28 09:35:54;;;;;;;1.60;1.50;;;;;;;;;;5077028;28;20228;-62
2023/08/28 09:38:22;;;;;;;1.60;1.50;;;;;;;;;;5076784;28;20210;-62
2023/08/28 09:40:49;;;;;;;1.60;1.50;;;;;;;;;;5076733;28;20313;-62
2023/08/28 09:43:18;;;;;;;1.98;1.65;;;;;;;;;;5076962;28;20196;-62
2023/08/28 09:45:46;;;;;;;2.88;1.83;;;;;;;;;;5075773;28;20204;-62
2023/08/28 09:48:15;;;;;;;1.83;1.73;;;;;;;;;;5076977;28;20505;-62
2023/08/28 09:50:43;;;;;;;2.22;2.03;;;;;;;;;;5077124;28;20633;-62
2023/08/28 09:53:11;;;;;;;2.20;1.80;;;;;;;;;;5076824;28;20200;-62
2023/08/28 09:55:39;;;;;;;3.00;2.13;;;;;;;;;;5076437;28;20259;-62
2023/08/28 09:58:10;;;;;;;2.55;1.98;;;;;;;;;;5075658;28;20208;-62
2023/08/28 10:00:40;;;;;;;2.40;2.20;;;;;;;;;;5076503;28;20200;-62
2023/08/28 10:03:09;;;;;;;2.38;2.00;;;;;;;;;;5075747;28;20205;-62
2023/08/28 10:05:37;;;;;;;2.38;2.03;;;;;;;;;;5075662;28;20207;-62
2023/08/28 10:08:07;;;;;;;1.92;1.70;;;;;;;;;;5075822;28;20204;-62
2023/08/28 10:10:34;;;;;;;2.00;1.80;;;;;;;;;;5075822;28;20262;-62
2023/08/28 10:13:04;;;;;;;2.25;1.88;;;;;;;;;;5076164;28;20255;-62
2023/08/28 10:15:33;;;;;;;2.10;1.85;;;;;;;;;;5075970;28;20231;-62
2023/08/28 10:18:05;;;;;;;1.80;1.70;;;;;;;;;;5075903;28;20200;-62
2023/08/28 10:20:34;;;;;;;2.00;1.90;;;;;;;;;;5076095;28;20197;-62
2023/08/28 10:23:01;;;;;;;1.95;1.83;;;;;;;;;;5075759;28;20306;-62
2023/08/28 10:25:30;;;;;;;1.83;1.70;;;;;;;;;;5075883;28;20565;-62
2023/08/28 10:27:58;;;;;;;2.00;1.70;;;;;;;;;;5075736;28;20281;-62
2023/08/28 10:30:26;;;;;;;1.77;1.67;;;;;;;;;;5075288;28;20506;-62
2023/08/28 10:32:55;;;;;;;1.75;1.65;;;;;;;;;;5075224;28;20203;-62
2023/08/28 10:35:24;;;;;;;1.70;1.60;;;;;;;;;;5074088;28;20223;-62
2023/08/28 10:37:52;;;;;;;1.58;1.48;;;;;;;;;;5076213;28;20196;-62
2023/08/28 10:40:20;;;;;;;2.28;1.73;;;;;;;;;;5076124;28;20208;-62
2023/08/28 10:42:48;;;;;;;1.60;1.50;;;;;;;;;;5075366;28;20196;-62
2023/08/28 10:45:16;;;;;;;1.63;1.40;;;;;;;;;;5075181;28;20212;-62
2023/08/28 10:47:49;;;;;;;2.10;1.90;;;;;;;;;;5074550;28;20204;-62
2023/08/28 10:50:16;;;;;;;1.45;1.33;;;;;;;;;;5074837;28;20204;-62
2023/08/28 10:52:46;;;;;;;1.60;1.50;;;;;;;;;;5075500;28;20205;-61
2023/08/28 10:55:18;;;;;;;1.70;1.60;;;;;;;;;;5075575;28;20277;-61
2023/08/28 10:57:50;;;;;;;1.50;1.40;;;;;;;;;;5075356;28;20516;-61
2023/08/28 11:00:19;;;;;;;1.60;1.50;;;;;;;;;;5075056;28;20505;-62
2023/08/28 11:03:05;;;;;;;2.15;1.50;;;;;;;;;;5074876;28;20204;-62
2023/08/28 11:05:33;;;;;;;1.70;1.55;;;;;;;;;;5075358;28;20210;-61
2023/08/28 11:08:04;;;;;;;1.60;1.50;;;;;;;;;;5074920;28;20213;-62
2023/08/28 11:10:32;;;;;;;1.83;1.63;;;;;;;;;;5074904;28;20230;-62
2023/08/28 11:13:02;;;;;;;1.80;1.70;;;;;;;;;;5074671;28;20232;-62
2023/08/28 11:15:30;;;;;;;1.92;1.67;;;;;;;;;;5074492;28;20208;-62
2023/08/28 11:18:16;;;;;;;2.13;1.48;;;;;;;;;;5075206;28;20201;-62
2023/08/28 11:20:43;;;;;;;2.13;1.70;;;;;;;;;;5074375;28;20494;-62
2023/08/28 11:23:19;;;;;;;1.75;1.48;;;;;;;;;;5075395;28;20204;-62
2023/08/28 11:25:47;;;;;;;1.60;1.50;;;;;;;;;;5075323;28;20200;-62
2023/08/28 11:28:24;;;;;;;2.28;1.60;;;;;;;;;;5074831;28;20223;-61
2023/08/28 11:30:52;;;;;;;2.00;1.60;;;;;;;;;;5075046;28;20204;-61
2023/08/28 11:33:20;;;;;;;2.25;1.73;;;;;;;;;;5075606;28;20494;-62
2023/08/28 11:35:48;;;;;;;2.45;1.50;;;;;;;;;;5074848;28;20568;-62
2023/08/28 11:38:18;;;;;;;1.50;1.40;;;;;;;;;;5074398;28;20196;-62
2023/08/28 11:40:46;;;;;;;1.60;1.50;;;;;;;;;;5073520;28;20215;-61
2023/08/28 11:43:16;;;;;;;1.80;1.33;;;;;;;;;;5074053;28;20211;-62
2023/08/28 11:45:43;;;;;;;1.70;1.60;;;;;;;;;;5073835;28;20208;-62
2023/08/28 11:48:11;;;;;;;2.00;1.88;;;;;;;;;;5074173;28;20203;-62
2023/08/28 11:50:38;;;;;;;2.70;1.90;;;;;;;;;;5074051;28;20204;-62
2023/08/28 11:53:06;;;;;;;2.25;1.80;;;;;;;;;;5075087;28;20202;-62
2023/08/28 11:55:34;;;;;;;2.00;1.60;;;;;;;;;;5075077;28;20204;-62
2023/08/28 11:58:02;;;;;;;2.05;1.70;;;;;;;;;;5074980;28;20204;-62
2023/08/28 12:00:31;;;;;;;1.60;1.50;;;;;;;;;;5074225;28;20196;-62
2023/08/28 12:02:58;;;;;;;1.80;1.70;;;;;;;;;;5073798;28;20204;-62
2023/08/28 12:05:27;;;;;;;1.92;1.63;;;;;;;;;;5074533;28;20209;-62
2023/08/28 12:07:54;;;;;;;1.50;1.40;;;;;;;;;;5074867;28;20231;-62
2023/08/28 12:10:22;;;;;;;1.58;1.48;;;;;;;;;;5077939;28;20211;-62
2023/08/28 12:12:55;;;;;;;1.52;1.42;;;;;;;;;;5077139;28;20228;-62
2023/08/28 12:15:31;;;;;;;1.55;1.35;;;;;;;;;;5077636;28;20544;-62
2023/08/28 12:18:01;;;;;;;1.40;1.30;;;;;;;;;;5076088;28;20212;-62
2023/08/28 12:20:31;;;;;;;1.58;1.48;;;;;;;;;;5077221;28;20655;-62
2023/08/28 12:22:59;;;;;;;1.95;1.63;;;;;;;;;;5077626;28;20204;-62
2023/08/28 12:25:31;;;;;;;1.58;1.48;;;;;;;;;;5076834;28;20204;-62
2023/08/28 12:28:06;;;;;;;1.50;1.40;;;;;;;;;;5076493;28;20197;-62
2023/08/28 12:30:33;;;;;;;1.40;1.30;;;;;;;;;;5076517;28;20272;-62
2023/08/28 12:33:04;;;;;;;1.60;1.50;;;;;;;;;;5075613;28;20200;-62
2023/08/28 12:35:36;;;;;;;1.50;1.40;;;;;;;;;;5076958;28;20285;-62
2023/08/28 12:38:06;;;;;;;1.50;1.25;;;;;;;;;;5078054;28;20618;-62
2023/08/28 12:40:35;;;;;;;1.52;1.40;;;;;;;;;;5077629;28;20631;-62
2023/08/28 12:43:03;;;;;;;1.48;1.38;;;;;;;;;;5077968;28;20204;-62
2023/08/28 12:45:34;;;;;;;1.40;1.30;;;;;;;;;;5078337;28;20196;-62
2023/08/28 12:48:02;;;;;;;1.75;1.48;;;;;;;;;;5078192;28;20265;-62
2023/08/28 12:50:29;;;;;;;1.40;1.30;;;;;;;;;;5077723;28;20608;-62
2023/08/28 12:52:57;;;;;;;1.98;1.35;;;;;;;;;;5077943;28;20196;-61
2023/08/28 12:55:24;;;;;;;1.60;1.50;;;;;;;;;;5077328;28;20200;-61
2023/08/28 12:57:52;;;;;;;1.60;1.50;;;;;;;;;;5076886;28;20751;-61
2023/08/28 13:00:20;;;;;;;1.80;1.52;;;;;;;;;;5076908;28;20203;-61
2023/08/28 13:02:48;;;;;;;1.88;1.50;;;;;;;;;;5075791;28;20246;-61
2023/08/28 13:05:16;;;;;;;1.52;1.30;;;;;;;;;;5077290;28;20599;-62
2023/08/28 13:07:44;;;;;;;1.52;1.42;;;;;;;;;;5076574;28;20215;-62
2023/08/28 13:10:12;;;;;;;1.67;1.58;;;;;;;;;;5077682;28;20200;-62
2023/08/28 13:12:39;;;;;;;1.60;1.50;;;;;;;;;;5077178;28;20240;-62
2023/08/28 13:15:07;;;;;;;1.70;1.60;;;;;;;;;;5076664;28;20200;-62
2023/08/28 13:17:35;;;;;;;1.70;1.60;;;;;;;;;;5076033;28;20600;-62
2023/08/28 13:20:04;;;;;;;1.63;1.35;;;;;;;;;;5076167;28;20207;-62
2023/08/28 13:22:32;;;;;;;1.70;1.60;;;;;;;;;;5077958;28;20454;-62
2023/08/28 13:24:59;;;;;;;1.70;1.60;;;;;;;;;;5077113;28;20215;-62
2023/08/28 13:27:27;;;;;;;1.60;1.50;;;;;;;;;;5077305;28;20207;-62
2023/08/28 13:29:54;;;;;;;1.60;1.50;;;;;;;;;;5076353;28;20196;-63
2023/08/28 13:32:21;;;;;;;1.85;1.73;;;;;;;;;;5076059;28;20219;-62
2023/08/28 13:34:49;;;;;;;1.65;1.52;;;;;;;;;;5076802;28;20603;-62
2023/08/28 13:37:17;;;;;;;1.52;1.42;;;;;;;;;;5076395;28;20223;-62
2023/08/28 13:39:46;;;;;;;1.67;1.58;;;;;;;;;;5076622;28;20210;-62
2023/08/28 13:42:13;;;;;;;1.60;1.50;;;;;;;;;;5076203;28;20295;-62
2023/08/28 13:44:41;;;;;;;1.55;1.45;;;;;;;;;;5077362;28;20205;-62
2023/08/28 13:47:08;;;;;;;1.58;1.48;;;;;;;;;;5077112;28;20196;-62
2023/08/28 13:49:35;;;;;;;1.42;1.33;;;;;;;;;;5075122;28;20204;-62
2023/08/28 13:52:03;;;;;;;1.73;1.63;;;;;;;;;;5076746;28;20215;-62
2023/08/28 13:54:32;;;;;;;1.63;1.52;;;;;;;;;;5075497;28;20211;-62
2023/08/28 13:56:59;;;;;;;1.58;1.48;;;;;;;;;;5076541;28;20220;-62
2023/08/28 13:59:26;;;;;;;1.70;1.60;;;;;;;;;;5076032;28;20204;-62
2023/08/28 14:01:53;;;;;;;1.40;1.30;;;;;;;;;;5076319;28;20200;-62
2023/08/28 14:04:21;;;;;;;1.40;1.30;;;;;;;;;;5075756;28;20565;-62
2023/08/28 14:06:48;;;;;;;1.50;1.40;;;;;;;;;;5075315;28;20192;-62
2023/08/28 14:09:16;;;;;;;1.30;1.23;;;;;;;;;;5075635;28;20205;-62
2023/08/28 14:11:45;;;;;;;2.00;1.45;;;;;;;;;;5075806;28;20201;-61
2023/08/28 14:14:12;;;;;;;1.40;1.30;;;;;;;;;;5075511;28;20815;-62
2023/08/28 14:16:39;;;;;;;1.40;1.30;;;;;;;;;;5075490;28;20224;-62
2023/08/28 14:19:07;;;;;;;1.50;1.30;;;;;;;;;;5074827;28;20204;-62
2023/08/28 14:21:35;;;;;;;1.60;1.50;;;;;;;;;;5075741;28;20204;-62
2023/08/28 14:24:02;;;;;;;1.40;1.30;;;;;;;;;;5074590;28;20196;-62
2023/08/28 14:26:30;;;;;;;1.50;1.40;;;;;;;;;;5075316;28;20261;-61
2023/08/28 14:28:59;;;;;;;1.60;1.30;;;;;;;;;;5075567;28;20315;-61
2023/08/28 14:31:26;;;;;;;1.30;1.20;;;;;;;;;;5075194;28;20239;-62
2023/08/28 14:33:54;;;;;;;1.13;1.10;;;;;;;;;;5074799;28;20221;-62
2023/08/28 14:36:22;;;;;;;1.30;1.20;;;;;;;;;;5075993;28;20218;-62
2023/08/28 14:38:49;;;;;;;1.40;1.30;;;;;;;;;;5075913;28;20200;-62
2023/08/28 14:41:16;;;;;;;1.50;1.40;;;;;;;;;;5075796;28;20215;-62
2023/08/28 14:43:44;;;;;;;1.30;1.20;;;;;;;;;;5075121;28;20204;-61
2023/08/28 14:46:13;;;;;;;1.67;1.30;;;;;;;;;;5075777;28;20208;-61
2023/08/28 14:48:40;;;;;;;2.10;1.27;;;;;;;;;;5074386;28;20565;-62